12 Hour 24 Hour 72 Hour 120 Hour 240 Hour

48 hour History

Graph times and dates are UTC
Temperature/Dew point Wind (MPH)
temperature and dew point graph wind speed and direction graph
 
Barometer (millibars) Rain (inches)
barometer graph rain graph
Hourly/Total since local midnight
Wind Distribution (Past 48 hours)
48 Hour Wind Compass Rose

 

Hourly Observations (past 48 hours)

Date Hour Temperature (°F) Humi-
dity

(%)
Wind
(mph)
Pressure Rain (in) Sun
(W/m2)
UV ET
(in)
Air 6 Hour Dew Alt
(in Hg.)
Sea
Level

(mb)
1 hr 3 hr 6 hr Day Rate
Max Min Day
Dec 13 15:00 26.6 5.0 39 W 2 G 9 29.48 998.2 0.00 0.00 21 0.0 0.021
Dec 13 14:00 25.8 7.9 46 SW 2 G 8 29.45 997.4 0.00 0.00 35 0.0 0.020
Dec 13 13:00 24.5 24.5 17.7 8.5 50 W 4 G 8 29.45 997.3 0.00 0.00 195 0.0 0.018
Dec 13 12:00 22.2 8.1 54 W 6 G 11 29.45 997.2 0.00 0.00 95 0.0 0.016
Dec 13 11:00 22.1 7.6 53 W 3 G 10 29.44 997.1 0.00 0.00 98 0.0 0.015
Dec 13 10:00 20.3 5.9 53 WSW 3 G 8 29.45 997.3 0.00 0.00 74 0.0 0.013
Dec 13 09:00 19.1 4.8 53 W 3 G 9 29.44 997.1 0.00 0.00 76 0.0 0.011
Dec 13 08:00 17.8 5.9 59 W 2 G 8 29.42 996.2 0.00 0.00 35 0.0 0.010
Dec 13 07:00 17.7 23.9 17.5 6.5 61 WSW 2 G 6 29.41 995.9 0.00 0.00 0 0.0 0.010
Dec 13 06:00 17.7 5.4 58 W 2 G 8 29.39 995.3 0.00 0.00 0 0.0 0.009
Dec 13 05:00 18.1 4.6 55 W 3 G 8 29.40 995.5 0.00 0.00 0 0.0 0.008
Dec 13 04:00 19.9 5.9 54 WNW 2 G 9 29.40 995.7 0.00 0.00 0 0.0 0.007
Dec 13 03:00 20.6 7.8 57 WNW 1 G 7 29.42 996.2 0.00 0.00 0 0.0 0.006
Dec 13 02:00 21.6 8.3 56 WSW 0 G 6 29.42 996.2 0.00 0.00 0 0.0 0.005
Dec 13 01:00 23.9 36.2 23.9 10.9 57 W 2 G 7 29.40 995.7 0.00 0.00 0 0.0 0.004
Dec 13 00:00 26.0 13.2 58 WNW 1 G 5 29.40 995.5 0.22 0.00 0 0.0 0.003
Dec 12 23:00 28.4 18.5 66 WNW 2 G 8 29.36 994.2 0.00 0.00 0 0.0 0.002
Dec 12 22:00 29.5 20.9 70 SSE 1 G 4 29.36 994.2 0.00 0.00 0 0.0 0.001
Dec 12 21:00 31.2 23.9 74 W 1 G 14 29.37 994.7 0.00 0.00 0 0.0 0.000
Dec 12 20:00 32.5 28.2 84 W 0 G 4 29.40 995.6 0.00 0.00 0 0.0 0.000
Dec 12 19:00 36.2 41.6 36.2 33.6 90 S 0 G 4 29.37 994.6 0.06 0.00 0.00 0 0.0 0.000
Dec 12 18:00 37.6 34.9 90 W 0 G 5 29.37 994.6 0.22 0.00 0 0.0 0.013
Dec 12 17:00 39.1 36.4 90 Calm 29.35 994.0 0.22 0.00 0 0.0 0.013
Dec 12 16:00 39.8 37.4 91 Calm 29.36 994.2 0.01 0.06 0.22 0.00 12 0.0 0.013
Dec 12 15:00 40.1 37.4 90 Calm 29.37 994.6 0.02 0.21 0.00 19 0.0 0.013
Dec 12 14:00 40.8 38.1 90 Calm 29.38 994.8 0.03 0.19 0.00 25 0.0 0.013
Dec 12 13:00 41.6 43.2 38.8 38.6 89 WNW 0 G 2 29.40 995.7 0.04 0.11 0.16 0.16 0.00 21 0.0 0.013
Dec 12 12:00 43.1 40.1 89 Calm 29.43 996.6 0.05 0.12 0.00 18 0.0 0.013
Dec 12 11:00 43.2 39.9 88 WSW 0 G 1 29.47 998.1 0.02 0.07 0.00 12 0.0 0.013
Dec 12 10:00 42.3 39.0 88 WSW 0 G 6 29.52 999.7 0.01 0.05 0.05 0.00 40 0.0 0.012
Dec 12 09:00 40.8 37.5 88 ENE 0 G 2 29.56 1001.0 0.02 0.04 0.00 39 0.0 0.011
Dec 12 08:00 39.6 35.5 85 E 1 G 8 29.58 1001.8 0.02 0.02 0.00 19 0.0 0.011
Dec 12 07:00 38.8 38.8 32.8 33.5 81 ESE 1 G 5 29.61 1002.8 0.00 0.00 0 0.0 0.011
Dec 12 06:00 37.6 31.4 78 E 0 G 5 29.65 1004.2 0.00 0.00 0 0.0 0.011
Dec 12 05:00 36.0 28.5 74 E 1 G 8 29.69 1005.4 0.00 0.00 0 0.0 0.010
Dec 12 04:00 34.9 26.1 70 E 0 G 3 29.73 1006.9 0.00 0.00 0 0.0 0.009
Dec 12 03:00 34.0 24.6 68 E 0 G 1 29.77 1008.2 0.00 0.00 0 0.0 0.008
Dec 12 02:00 33.4 23.6 67 Calm 29.81 1009.6 0.00 0.00 0 0.0 0.007
Dec 12 01:00 32.8 33.2 32.2 22.0 64 Calm 29.83 1010.2 0.00 0.00 0 0.0 0.006
Dec 12 00:00 32.8 21.6 63 Calm 29.86 1011.3 0.07 0.00 0 0.0 0.005
Dec 11 23:00 32.8 21.2 62 Calm 29.89 1012.3 0.00 0.00 0 0.0 0.004
Dec 11 22:00 32.5 21.3 63 Calm 29.91 1012.8 0.00 0.00 0 0.0 0.003
Dec 11 21:00 32.4 20.8 62 Calm 29.91 1012.9 0.00 0.00 0 0.0 0.002
Dec 11 20:00 32.5 20.2 60 Calm 29.94 1014.0 0.00 0.00 0 0.0 0.001
Dec 11 19:00 33.2 39.2 33.2 20.8 60 Calm 29.93 1013.6 0.02 0.00 0.00 0 0.0 0.000
Dec 11 18:00 34.0 21.6 60 Calm 29.93 1013.5 0.07 0.00 0 0.0 0.032
Dec 11 17:00 34.6 19.7 54 Calm 29.92 1013.3 0.07 0.00 0 0.0 0.031
Dec 11 16:00 36.5 19.6 50 Calm 29.92 1013.3 0.02 0.07 0.00 9 0.0 0.031

0.0031